Time;durP1;ratioP1;P1;durP2;ratioP2;P2;SDS_P1;SDS_P2;PMS_P1;PMS_P2;Temp;Humidity;BMP_temperature;BMP_pressure;BME280_temperature;BME280_humidity;BME280_pressure;Samples;Min_cycle;Max_cycle;Signal;HPM_P1;HPM_P2
2022/03/03 00:02:02;;;;;;;19.02;10.88;;;;;;;;;;5048182;28;20047;-86
2022/03/03 00:04:31;;;;;;;18.20;10.48;;;;;;;;;;5055540;28;20021;-86
2022/03/03 00:06:57;;;;;;;20.05;11.30;;;;;;;;;;5041113;28;20083;-86
2022/03/03 00:09:23;;;;;;;19.05;11.05;;;;;;;;;;5041254;28;20483;-86
2022/03/03 00:15:11;;;;;;;19.88;10.48;;;;;;;;;;5044281;28;20044;-85
2022/03/03 00:17:37;;;;;;;22.58;10.57;;;;;;;;;;5051254;28;20033;-86
2022/03/03 00:20:03;;;;;;;17.35;10.18;;;;;;;;;;5065489;28;20017;-86
2022/03/03 00:25:33;;;;;;;19.80;10.32;;;;;;;;;;5065539;28;20036;-86
2022/03/03 00:31:07;;;;;;;19.35;10.63;;;;;;;;;;5062119;28;20050;-86
2022/03/03 00:33:33;;;;;;;18.67;10.40;;;;;;;;;;5062480;28;20025;-85
2022/03/03 00:39:03;;;;;;;21.08;10.80;;;;;;;;;;5054367;28;20051;-86
2022/03/03 00:41:29;;;;;;;18.05;10.25;;;;;;;;;;5053305;28;20036;-86
2022/03/03 00:43:56;;;;;;;20.67;10.90;;;;;;;;;;5044160;28;20057;-86
2022/03/03 00:46:24;;;;;;;19.63;11.05;;;;;;;;;;5041539;28;20022;-86
2022/03/03 00:48:51;;;;;;;21.17;10.98;;;;;;;;;;5056446;28;20029;-85
2022/03/03 00:54:39;;;;;;;19.27;11.57;;;;;;;;;;3777885;28;21893;-87
2022/03/03 00:57:05;;;;;;;20.88;11.52;;;;;;;;;;5055203;28;21608;-86
2022/03/03 00:59:31;;;;;;;17.73;11.20;;;;;;;;;;5051517;28;20032;-85
2022/03/03 01:01:57;;;;;;;21.85;11.23;;;;;;;;;;5040049;28;20084;-85
2022/03/03 01:04:23;;;;;;;17.90;10.95;;;;;;;;;;5054162;28;20029;-85
2022/03/03 01:06:50;;;;;;;20.17;12.18;;;;;;;;;;5051698;28;20029;-85
2022/03/03 01:09:16;;;;;;;22.50;12.20;;;;;;;;;;5042350;28;20079;-85
2022/03/03 01:11:43;;;;;;;18.58;11.57;;;;;;;;;;5056569;28;20036;-85
2022/03/03 01:14:08;;;;;;;17.95;11.45;;;;;;;;;;5055069;28;20037;-85
2022/03/03 01:16:34;;;;;;;19.00;11.40;;;;;;;;;;5054160;28;20029;-85
2022/03/03 01:19:01;;;;;;;21.65;11.48;;;;;;;;;;5038028;28;20480;-85
2022/03/03 01:21:27;;;;;;;21.73;12.68;;;;;;;;;;5051037;28;20492;-86
2022/03/03 01:23:53;;;;;;;19.88;12.52;;;;;;;;;;5056206;28;20029;-85
2022/03/03 01:26:19;;;;;;;19.20;12.30;;;;;;;;;;5058775;28;20025;-85
2022/03/03 01:28:45;;;;;;;20.85;12.52;;;;;;;;;;5048239;28;20037;-85
2022/03/03 01:31:11;;;;;;;23.38;12.73;;;;;;;;;;5055220;28;20021;-85
2022/03/03 01:33:37;;;;;;;20.13;12.07;;;;;;;;;;5056970;28;20450;-85
2022/03/03 01:36:03;;;;;;;20.95;12.43;;;;;;;;;;5051124;28;20027;-85
2022/03/03 01:38:30;;;;;;;21.95;12.63;;;;;;;;;;5040391;28;20075;-85
2022/03/03 01:40:56;;;;;;;21.00;12.52;;;;;;;;;;5039084;28;20026;-85
2022/03/03 01:46:48;;;;;;;20.33;11.80;;;;;;;;;;5058575;28;20079;-85
2022/03/03 01:49:14;;;;;;;22.85;12.68;;;;;;;;;;5055472;28;20056;-85
2022/03/03 01:51:40;;;;;;;24.05;13.70;;;;;;;;;;5048758;28;20017;-85
2022/03/03 01:54:06;;;;;;;21.50;12.25;;;;;;;;;;5048633;28;20075;-85
2022/03/03 01:56:32;;;;;;;17.67;11.98;;;;;;;;;;5055296;28;20045;-85
2022/03/03 01:58:59;;;;;;;21.27;11.82;;;;;;;;;;5057228;28;20028;-85
2022/03/03 02:01:25;;;;;;;23.08;12.27;;;;;;;;;;5054866;28;20021;-85
2022/03/03 02:03:51;;;;;;;20.50;12.40;;;;;;;;;;5040731;28;20029;-85
2022/03/03 02:06:17;;;;;;;21.67;13.02;;;;;;;;;;5038025;28;20153;-85
2022/03/03 02:08:43;;;;;;;21.92;12.25;;;;;;;;;;5052767;28;20033;-84
2022/03/03 02:11:09;;;;;;;22.08;13.43;;;;;;;;;;5075460;28;20064;-84
2022/03/03 02:13:36;;;;;;;21.70;12.23;;;;;;;;;;5064103;28;20033;-85
2022/03/03 02:16:02;;;;;;;21.70;12.57;;;;;;;;;;5035806;28;20022;-85
2022/03/03 02:18:28;;;;;;;21.77;10.80;;;;;;;;;;5037243;28;20025;-86
2022/03/03 02:20:54;;;;;;;21.50;12.73;;;;;;;;;;5036732;28;20472;-85
2022/03/03 02:26:39;;;;;;;20.55;11.32;;;;;;;;;;5038961;28;20036;-85
2022/03/03 02:29:05;;;;;;;19.63;11.50;;;;;;;;;;5039632;28;20035;-85
2022/03/03 02:31:31;;;;;;;20.13;12.52;;;;;;;;;;5051033;28;20406;-84
2022/03/03 02:33:58;;;;;;;23.45;12.60;;;;;;;;;;5072394;28;20043;-84
2022/03/03 02:36:25;;;;;;;20.02;11.43;;;;;;;;;;5073538;28;20013;-83
2022/03/03 02:38:52;;;;;;;21.35;12.65;;;;;;;;;;5055324;28;20033;-83
2022/03/03 02:41:19;;;;;;;23.80;12.25;;;;;;;;;;5064515;28;20024;-84
2022/03/03 02:43:45;;;;;;;20.65;10.82;;;;;;;;;;5056802;28;20083;-84
2022/03/03 02:46:11;;;;;;;19.17;11.75;;;;;;;;;;5063626;28;20029;-84
2022/03/03 02:48:37;;;;;;;20.33;11.55;;;;;;;;;;5067750;28;20071;-84
2022/03/03 02:51:04;;;;;;;20.88;11.45;;;;;;;;;;5068914;28;20097;-83
2022/03/03 02:53:30;;;;;;;21.73;11.98;;;;;;;;;;5074556;28;20133;-84
2022/03/03 02:55:56;;;;;;;19.75;10.68;;;;;;;;;;5053263;28;20147;-85
2022/03/03 02:58:22;;;;;;;19.75;11.88;;;;;;;;;;5059111;28;20093;-85
2022/03/03 03:00:48;;;;;;;19.65;11.85;;;;;;;;;;5052114;28;20044;-86
2022/03/03 03:03:15;;;;;;;19.77;11.48;;;;;;;;;;5061878;28;20021;-85
2022/03/03 03:05:42;;;;;;;22.63;12.15;;;;;;;;;;5048480;28;20021;-85
2022/03/03 03:08:08;;;;;;;18.33;11.07;;;;;;;;;;5047821;28;20060;-85
2022/03/03 03:10:34;;;;;;;18.80;11.40;;;;;;;;;;5044973;28;20056;-84
2022/03/03 03:13:00;;;;;;;20.10;11.75;;;;;;;;;;5057002;28;20021;-85
2022/03/03 03:15:26;;;;;;;17.88;11.23;;;;;;;;;;5038204;28;20044;-85
2022/03/03 03:17:52;;;;;;;18.65;10.63;;;;;;;;;;5036604;28;20025;-85
2022/03/03 03:20:18;;;;;;;18.20;12.23;;;;;;;;;;5064622;28;20021;-83
2022/03/03 03:22:45;;;;;;;20.85;12.35;;;;;;;;;;5075598;28;20057;-84
2022/03/03 03:25:12;;;;;;;20.25;12.00;;;;;;;;;;5074117;28;20017;-84
2022/03/03 03:27:39;;;;;;;22.70;12.48;;;;;;;;;;5074323;28;20023;-84
2022/03/03 03:30:06;;;;;;;21.70;12.98;;;;;;;;;;5074332;28;20089;-84
2022/03/03 03:32:32;;;;;;;20.92;12.75;;;;;;;;;;5055757;28;20044;-84
2022/03/03 03:34:58;;;;;;;19.02;12.52;;;;;;;;;;5053765;28;20029;-85
2022/03/03 03:37:24;;;;;;;22.35;13.40;;;;;;;;;;5055591;28;20009;-83
2022/03/03 03:39:51;;;;;;;28.50;13.90;;;;;;;;;;5062758;28;20016;-84
2022/03/03 03:42:17;;;;;;;23.13;13.32;;;;;;;;;;5074117;28;20085;-84
2022/03/03 03:47:46;;;;;;;22.10;12.63;;;;;;;;;;5048089;28;20033;-84
2022/03/03 03:50:13;;;;;;;24.35;13.75;;;;;;;;;;5046081;28;20387;-84
2022/03/03 03:52:39;;;;;;;22.13;12.88;;;;;;;;;;5047254;28;20029;-84
2022/03/03 03:55:07;;;;;;;24.67;12.80;;;;;;;;;;5035881;28;20458;-83
2022/03/03 03:57:33;;;;;;;22.20;12.18;;;;;;;;;;5036749;28;20109;-84
2022/03/03 03:59:59;;;;;;;21.95;13.05;;;;;;;;;;5046502;28;20051;-84
2022/03/03 04:02:25;;;;;;;21.88;12.07;;;;;;;;;;5053542;28;20029;-84
2022/03/03 04:04:51;;;;;;;17.42;11.73;;;;;;;;;;5035856;28;20406;-84
2022/03/03 04:07:18;;;;;;;25.17;12.98;;;;;;;;;;5057022;28;20021;-84
2022/03/03 04:09:44;;;;;;;20.08;12.38;;;;;;;;;;5049074;28;20033;-84
2022/03/03 04:12:10;;;;;;;18.67;12.10;;;;;;;;;;5034758;28;20056;-83
2022/03/03 04:17:41;;;;;;;20.25;12.35;;;;;;;;;;5056021;28;20056;-83
2022/03/03 04:20:07;;;;;;;24.23;12.70;;;;;;;;;;5047868;28;20120;-82
2022/03/03 04:22:34;;;;;;;23.30;12.48;;;;;;;;;;5047127;28;20026;-83
2022/03/03 04:25:00;;;;;;;23.02;12.93;;;;;;;;;;5047474;28;20048;-83
2022/03/03 04:27:26;;;;;;;18.85;11.82;;;;;;;;;;5046462;28;20065;-82
2022/03/03 04:29:52;;;;;;;20.80;13.02;;;;;;;;;;5052910;28;20545;-82
2022/03/03 04:32:18;;;;;;;24.02;13.60;;;;;;;;;;5048283;28;20033;-83
2022/03/03 04:34:45;;;;;;;19.85;11.90;;;;;;;;;;5046053;28;20040;-83
2022/03/03 04:37:11;;;;;;;22.92;12.85;;;;;;;;;;5044218;28;20025;-83
2022/03/03 04:39:37;;;;;;;24.00;12.90;;;;;;;;;;5043332;28;20032;-83
2022/03/03 04:42:03;;;;;;;24.92;12.85;;;;;;;;;;5061928;28;20048;-83
2022/03/03 04:44:29;;;;;;;19.38;12.38;;;;;;;;;;5053689;28;20024;-84
2022/03/03 04:46:55;;;;;;;21.85;12.15;;;;;;;;;;5060999;28;20039;-84
2022/03/03 04:49:21;;;;;;;22.67;13.38;;;;;;;;;;5049559;28;20025;-82
2022/03/03 04:51:47;;;;;;;23.17;13.68;;;;;;;;;;5056380;28;20085;-83
2022/03/03 04:54:13;;;;;;;21.73;13.15;;;;;;;;;;5056251;28;20029;-83
2022/03/03 04:56:40;;;;;;;21.27;13.10;;;;;;;;;;5056377;28;20092;-83
2022/03/03 04:59:06;;;;;;;20.67;13.13;;;;;;;;;;5063039;28;20029;-85
2022/03/03 05:01:32;;;;;;;22.48;12.63;;;;;;;;;;5052910;28;20084;-85
2022/03/03 05:03:58;;;;;;;24.17;13.52;;;;;;;;;;5046575;28;20037;-84
2022/03/03 05:06:24;;;;;;;26.33;13.38;;;;;;;;;;5054588;28;20399;-85
2022/03/03 05:08:51;;;;;;;22.45;12.63;;;;;;;;;;5039770;28;20034;-85
2022/03/03 05:11:17;;;;;;;24.15;14.32;;;;;;;;;;5055527;28;20021;-85
2022/03/03 05:13:43;;;;;;;22.13;12.70;;;;;;;;;;5055078;28;20068;-85
2022/03/03 05:16:09;;;;;;;22.83;12.57;;;;;;;;;;5037489;28;20025;-85
2022/03/03 05:18:35;;;;;;;21.45;12.80;;;;;;;;;;5051670;28;20022;-86
2022/03/03 05:21:01;;;;;;;23.02;12.82;;;;;;;;;;5042746;28;20021;-85
2022/03/03 05:23:28;;;;;;;21.23;12.05;;;;;;;;;;5058695;28;20139;-87
2022/03/03 05:25:54;;;;;;;23.98;12.57;;;;;;;;;;5056619;28;20025;-87
2022/03/03 05:28:20;;;;;;;27.08;13.30;;;;;;;;;;5050462;28;20032;-86
2022/03/03 05:30:46;;;;;;;21.90;13.52;;;;;;;;;;5046488;28;20029;-86
2022/03/03 05:33:12;;;;;;;23.75;13.30;;;;;;;;;;5043004;28;20061;-86
2022/03/03 05:35:40;;;;;;;22.23;13.43;;;;;;;;;;5057935;28;20037;-86
2022/03/03 05:38:06;;;;;;;21.50;13.40;;;;;;;;;;5058183;28;20029;-86
2022/03/03 05:40:32;;;;;;;22.83;12.77;;;;;;;;;;5046626;28;20084;-86
2022/03/03 05:42:58;;;;;;;25.30;13.98;;;;;;;;;;5035407;28;20057;-86
2022/03/03 05:45:24;;;;;;;21.42;12.30;;;;;;;;;;5051288;28;20029;-85
2022/03/03 05:47:50;;;;;;;20.25;11.80;;;;;;;;;;5051602;28;20025;-86
2022/03/03 05:50:16;;;;;;;21.90;12.73;;;;;;;;;;5042160;28;20025;-86
2022/03/03 05:52:42;;;;;;;19.52;12.48;;;;;;;;;;5048126;28;20029;-84
2022/03/03 05:55:08;;;;;;;23.70;12.75;;;;;;;;;;5044001;28;20474;-86
2022/03/03 05:57:45;;;;;;;22.67;12.52;;;;;;;;;;5036937;28;20052;-84
2022/03/03 06:00:13;;;;;;;25.95;13.95;;;;;;;;;;5056384;28;20013;-83
2022/03/03 06:02:49;;;;;;;22.05;12.80;;;;;;;;;;5067483;28;20034;-83
2022/03/03 06:05:18;;;;;;;24.02;12.55;;;;;;;;;;5063403;28;20013;-83
2022/03/03 06:07:45;;;;;;;22.67;13.80;;;;;;;;;;5072454;28;20048;-83
2022/03/03 06:10:13;;;;;;;23.67;12.77;;;;;;;;;;5072235;28;20013;-83
2022/03/03 06:12:51;;;;;;;24.00;13.40;;;;;;;;;;5056776;28;20026;-87
2022/03/03 06:15:19;;;;;;;27.00;13.38;;;;;;;;;;5060985;28;20052;-83
2022/03/03 06:17:45;;;;;;;26.15;14.68;;;;;;;;;;5054099;28;20097;-84
2022/03/03 06:20:13;;;;;;;21.35;12.30;;;;;;;;;;5056644;28;20029;-84
2022/03/03 06:22:39;;;;;;;22.52;13.68;;;;;;;;;;5061868;28;20025;-84
2022/03/03 06:25:05;;;;;;;24.88;14.15;;;;;;;;;;5059289;28;20044;-84
2022/03/03 06:27:32;;;;;;;21.90;12.73;;;;;;;;;;5053758;28;20514;-83
2022/03/03 06:29:58;;;;;;;19.85;11.15;;;;;;;;;;5075471;28;20183;-84
2022/03/03 06:32:24;;;;;;;20.65;11.48;;;;;;;;;;5063747;28;20037;-84
2022/03/03 06:34:50;;;;;;;19.95;12.63;;;;;;;;;;5052863;28;20021;-84
2022/03/03 06:37:16;;;;;;;20.95;11.63;;;;;;;;;;5059892;28;20123;-83
2022/03/03 06:39:44;;;;;;;21.35;12.15;;;;;;;;;;5065371;28;20036;-83
2022/03/03 06:42:10;;;;;;;20.42;11.68;;;;;;;;;;5085065;28;20039;-84
2022/03/03 06:44:36;;;;;;;21.00;12.88;;;;;;;;;;5056727;28;20049;-83
2022/03/03 06:47:02;;;;;;;22.38;12.73;;;;;;;;;;5052412;28;20102;-84
2022/03/03 06:49:29;;;;;;;26.83;14.70;;;;;;;;;;5052884;28;20075;-84
2022/03/03 06:51:56;;;;;;;24.35;13.70;;;;;;;;;;5047787;28;20041;-84
2022/03/03 06:54:23;;;;;;;20.73;13.18;;;;;;;;;;5054841;28;20028;-83
2022/03/03 06:56:57;;;;;;;23.20;13.45;;;;;;;;;;5055519;28;20041;-83
2022/03/03 06:59:24;;;;;;;21.95;13.63;;;;;;;;;;5058277;28;20021;-83
2022/03/03 07:01:51;;;;;;;22.00;12.88;;;;;;;;;;5042743;28;20079;-84
2022/03/03 07:04:18;;;;;;;22.45;13.80;;;;;;;;;;5057848;28;20063;-84
2022/03/03 07:06:44;;;;;;;23.75;14.38;;;;;;;;;;5060329;28;20060;-84
2022/03/03 07:09:11;;;;;;;22.33;14.23;;;;;;;;;;5059943;28;20029;-84
2022/03/03 07:11:43;;;;;;;23.08;13.25;;;;;;;;;;5058263;28;20513;-83
2022/03/03 07:14:09;;;;;;;21.63;13.80;;;;;;;;;;5055198;28;20029;-83
2022/03/03 07:16:38;;;;;;;25.52;15.02;;;;;;;;;;5054529;28;20025;-83
2022/03/03 07:19:05;;;;;;;22.13;14.60;;;;;;;;;;5035350;28;20025;-84
2022/03/03 07:21:31;;;;;;;24.00;14.27;;;;;;;;;;5034261;28;20026;-84
2022/03/03 07:24:17;;;;;;;21.08;14.13;;;;;;;;;;5038814;28;20021;-84
2022/03/03 07:26:49;;;;;;;25.75;14.93;;;;;;;;;;5059385;28;20048;-84
2022/03/03 07:29:16;;;;;;;23.83;14.10;;;;;;;;;;5055377;28;20052;-84
2022/03/03 07:31:51;;;;;;;22.13;15.52;;;;;;;;;;5042310;28;20534;-84
2022/03/03 07:34:22;;;;;;;21.75;13.93;;;;;;;;;;5044564;28;20438;-84
2022/03/03 07:36:49;;;;;;;22.40;15.00;;;;;;;;;;5049357;28;20365;-82
2022/03/03 07:39:16;;;;;;;21.05;13.48;;;;;;;;;;5034746;28;20093;-82
2022/03/03 07:41:43;;;;;;;20.25;13.40;;;;;;;;;;5049331;28;20479;-84
2022/03/03 07:44:09;;;;;;;22.73;14.10;;;;;;;;;;5054149;28;20062;-83
2022/03/03 07:46:35;;;;;;;22.67;14.18;;;;;;;;;;5044387;28;20094;-82
2022/03/03 07:49:02;;;;;;;21.40;14.20;;;;;;;;;;5052611;28;20025;-82
2022/03/03 07:51:28;;;;;;;21.80;13.77;;;;;;;;;;5054641;28;20052;-85
2022/03/03 07:53:54;;;;;;;22.88;14.43;;;;;;;;;;5054108;28;20102;-84
2022/03/03 07:56:31;;;;;;;19.83;14.15;;;;;;;;;;5053025;28;20052;-83
2022/03/03 07:59:02;;;;;;;22.98;14.50;;;;;;;;;;5054225;28;20021;-85
2022/03/03 08:01:30;;;;;;;21.88;14.48;;;;;;;;;;5051762;28;20024;-84
2022/03/03 08:03:56;;;;;;;24.35;14.43;;;;;;;;;;5032721;28;20096;-85
2022/03/03 08:06:23;;;;;;;22.70;15.98;;;;;;;;;;5033021;28;20033;-85
2022/03/03 08:08:50;;;;;;;24.88;15.00;;;;;;;;;;5046930;28;20029;-83
2022/03/03 08:11:19;;;;;;;22.50;14.10;;;;;;;;;;5048611;28;20021;-86
2022/03/03 08:13:46;;;;;;;21.77;14.15;;;;;;;;;;5049707;28;20771;-85
2022/03/03 08:16:13;;;;;;;21.85;14.27;;;;;;;;;;5049229;28;20025;-84
2022/03/03 08:18:39;;;;;;;24.02;15.05;;;;;;;;;;5032771;28;20395;-85
2022/03/03 08:21:06;;;;;;;23.48;15.35;;;;;;;;;;5043405;28;20028;-85
2022/03/03 08:23:32;;;;;;;22.52;14.73;;;;;;;;;;5052970;28;20029;-85
2022/03/03 08:25:59;;;;;;;24.33;14.50;;;;;;;;;;5048633;28;20039;-85
2022/03/03 08:28:25;;;;;;;22.77;13.85;;;;;;;;;;5049765;28;20056;-86
2022/03/03 08:31:20;;;;;;;20.58;13.80;;;;;;;;;;5055463;28;20340;-84
2022/03/03 08:34:06;;;;;;;22.33;13.98;;;;;;;;;;5016125;28;20088;-84
2022/03/03 08:36:44;;;;;;;19.42;13.75;;;;;;;;;;5026090;28;20104;-84
2022/03/03 08:39:10;;;;;;;18.98;13.27;;;;;;;;;;5052862;28;20457;-84
2022/03/03 08:41:38;;;;;;;21.90;14.05;;;;;;;;;;5037430;28;20021;-85
2022/03/03 08:44:05;;;;;;;25.35;14.88;;;;;;;;;;5035093;28;20419;-83
2022/03/03 08:46:33;;;;;;;20.15;13.98;;;;;;;;;;5027786;28;20457;-83
2022/03/03 08:49:00;;;;;;;20.92;13.82;;;;;;;;;;5058009;28;20021;-82
2022/03/03 08:51:26;;;;;;;21.20;13.82;;;;;;;;;;5074972;28;20033;-85
2022/03/03 08:53:52;;;;;;;24.88;15.35;;;;;;;;;;5062062;28;20037;-86
2022/03/03 08:56:18;;;;;;;21.55;14.65;;;;;;;;;;5048372;28;20041;-84
2022/03/03 08:58:44;;;;;;;22.15;14.48;;;;;;;;;;5035077;28;20039;-84
2022/03/03 09:01:11;;;;;;;25.08;14.73;;;;;;;;;;5039681;28;20032;-86
2022/03/03 09:03:39;;;;;;;23.20;15.25;;;;;;;;;;5053427;28;20033;-85
2022/03/03 09:06:05;;;;;;;23.95;14.88;;;;;;;;;;5037230;28;20021;-85
2022/03/03 09:08:31;;;;;;;21.40;13.77;;;;;;;;;;5057512;28;20052;-84
2022/03/03 09:10:57;;;;;;;21.80;14.38;;;;;;;;;;5058185;28;20044;-85
2022/03/03 09:13:23;;;;;;;21.42;14.52;;;;;;;;;;5057927;28;20033;-84
2022/03/03 09:15:49;;;;;;;20.40;13.65;;;;;;;;;;5055171;28;20491;-85
2022/03/03 09:18:15;;;;;;;18.63;13.18;;;;;;;;;;5039031;28;20459;-84
2022/03/03 09:20:42;;;;;;;21.77;14.45;;;;;;;;;;5037367;28;20026;-84
2022/03/03 09:23:08;;;;;;;22.40;13.65;;;;;;;;;;5037582;28;20462;-84
2022/03/03 09:25:36;;;;;;;23.50;13.90;;;;;;;;;;5038656;28;20013;-83
2022/03/03 09:28:03;;;;;;;23.33;13.90;;;;;;;;;;5060365;28;20112;-84
2022/03/03 09:30:29;;;;;;;23.25;13.77;;;;;;;;;;5060912;28;20021;-84
2022/03/03 09:35:59;;;;;;;21.58;14.65;;;;;;;;;;5060198;28;20090;-83
2022/03/03 09:38:25;;;;;;;25.25;14.23;;;;;;;;;;5041493;28;20443;-84
2022/03/03 09:40:51;;;;;;;29.35;14.88;;;;;;;;;;5042097;28;20071;-84
2022/03/03 09:43:18;;;;;;;21.27;14.25;;;;;;;;;;5040753;28;20022;-83
2022/03/03 09:45:44;;;;;;;19.38;13.68;;;;;;;;;;5040212;28;20049;-83
2022/03/03 09:48:10;;;;;;;21.55;13.38;;;;;;;;;;5056518;28;20100;-84
2022/03/03 09:50:38;;;;;;;25.90;14.35;;;;;;;;;;5060148;28;20088;-84
2022/03/03 09:53:11;;;;;;;19.58;13.38;;;;;;;;;;5060155;28;20036;-84
2022/03/03 09:55:38;;;;;;;20.75;13.43;;;;;;;;;;5062024;28;20072;-84
2022/03/03 10:01:08;;;;;;;22.50;12.65;;;;;;;;;;5042072;28;20367;-84
2022/03/03 10:03:34;;;;;;;20.20;13.32;;;;;;;;;;5059620;28;20040;-84
2022/03/03 10:06:01;;;;;;;22.10;14.80;;;;;;;;;;5059136;28;20478;-84
2022/03/03 10:08:28;;;;;;;21.65;14.20;;;;;;;;;;5056650;28;20032;-84
2022/03/03 10:10:55;;;;;;;21.65;14.90;;;;;;;;;;5048040;28;20108;-84
2022/03/03 10:13:21;;;;;;;30.17;17.00;;;;;;;;;;5040005;28;20472;-84
2022/03/03 10:15:51;;;;;;;30.95;20.48;;;;;;;;;;5038629;28;20117;-83
2022/03/03 10:18:18;;;;;;;19.92;15.57;;;;;;;;;;5061295;28;20352;-83
2022/03/03 10:20:47;;;;;;;21.10;14.02;;;;;;;;;;5063955;28;20082;-84
2022/03/03 10:23:13;;;;;;;21.60;13.82;;;;;;;;;;5065965;28;20021;-84
2022/03/03 10:25:41;;;;;;;22.80;14.60;;;;;;;;;;5065512;28;20029;-85
2022/03/03 10:28:27;;;;;;;29.65;17.58;;;;;;;;;;5058149;28;20017;-84
2022/03/03 10:30:54;;;;;;;22.98;14.95;;;;;;;;;;5043979;28;20025;-85
2022/03/03 10:33:21;;;;;;;26.33;17.02;;;;;;;;;;5044370;28;20078;-83
2022/03/03 10:36:06;;;;;;;23.42;15.55;;;;;;;;;;5046624;28;20517;-84
2022/03/03 10:38:34;;;;;;;22.70;14.43;;;;;;;;;;5044196;28;20570;-83
2022/03/03 10:41:01;;;;;;;21.95;15.13;;;;;;;;;;5057168;28;20021;-83
2022/03/03 10:43:27;;;;;;;25.13;15.95;;;;;;;;;;5063104;28;20024;-85
2022/03/03 10:45:54;;;;;;;23.92;16.30;;;;;;;;;;5061387;28;20024;-84
2022/03/03 10:48:24;;;;;;;22.42;15.30;;;;;;;;;;5064097;28;20040;-84
2022/03/03 10:50:54;;;;;;;20.45;16.50;;;;;;;;;;5050290;28;20479;-83
2022/03/03 10:53:21;;;;;;;22.27;15.73;;;;;;;;;;5063805;28;20025;-84
2022/03/03 10:56:00;;;;;;;25.83;16.60;;;;;;;;;;5056199;28;20515;-83
2022/03/03 10:58:47;;;;;;;23.45;15.85;;;;;;;;;;5044288;28;20028;-84
2022/03/03 11:01:13;;;;;;;19.13;14.55;;;;;;;;;;5043559;28;20030;-84
2022/03/03 11:03:40;;;;;;;19.73;15.02;;;;;;;;;;5043017;28;20034;-85
2022/03/03 11:06:07;;;;;;;22.55;14.93;;;;;;;;;;5044539;28;20514;-83
2022/03/03 11:08:33;;;;;;;22.83;14.70;;;;;;;;;;5046654;28;20017;-82
2022/03/03 11:10:59;;;;;;;22.65;15.73;;;;;;;;;;5045125;28;20038;-84
2022/03/03 11:13:26;;;;;;;22.80;15.48;;;;;;;;;;5058507;28;20451;-82
2022/03/03 11:15:52;;;;;;;24.20;16.92;;;;;;;;;;5061431;28;20039;-85
2022/03/03 11:18:19;;;;;;;22.70;16.30;;;;;;;;;;5046389;28;20028;-81
2022/03/03 11:20:46;;;;;;;21.75;15.20;;;;;;;;;;5044373;28;20021;-84
2022/03/03 11:23:12;;;;;;;23.10;16.05;;;;;;;;;;5042303;28;20021;-85
2022/03/03 11:25:39;;;;;;;23.77;15.75;;;;;;;;;;5049302;28;20064;-85
2022/03/03 11:28:06;;;;;;;23.55;16.15;;;;;;;;;;5045491;28;20135;-86
2022/03/03 11:30:32;;;;;;;20.27;15.20;;;;;;;;;;5043672;28;20036;-84
2022/03/03 11:33:17;;;;;;;24.02;16.10;;;;;;;;;;5056196;28;20107;-84
2022/03/03 11:35:50;;;;;;;22.73;15.73;;;;;;;;;;5039278;28;20029;-83
2022/03/03 11:38:17;;;;;;;21.85;14.88;;;;;;;;;;5050276;28;20017;-84
2022/03/03 11:41:05;;;;;;;23.38;13.75;;;;;;;;;;5053994;28;20033;-83
2022/03/03 11:43:44;;;;;;;22.13;15.13;;;;;;;;;;5040268;28;20066;-86
2022/03/03 11:46:10;;;;;;;23.50;15.63;;;;;;;;;;5050252;28;20029;-86
2022/03/03 11:48:38;;;;;;;21.83;14.73;;;;;;;;;;5062530;28;20050;-82
2022/03/03 11:51:22;;;;;;;22.15;15.10;;;;;;;;;;5050126;28;20032;-83
2022/03/03 11:53:49;;;;;;;22.10;15.50;;;;;;;;;;5061300;28;20228;-85
2022/03/03 11:56:15;;;;;;;23.25;15.05;;;;;;;;;;5052877;28;20037;-81
2022/03/03 11:58:42;;;;;;;21.00;15.15;;;;;;;;;;5061595;28;20501;-85
2022/03/03 12:01:12;;;;;;;21.40;15.18;;;;;;;;;;5050787;28;20026;-85
2022/03/03 12:04:08;;;;;;;22.40;15.18;;;;;;;;;;5056817;28;20075;-83
2022/03/03 12:09:41;;;;;;;25.85;16.05;;;;;;;;;;5063048;28;20024;-82
2022/03/03 12:12:07;;;;;;;22.20;13.52;;;;;;;;;;5063331;28;20077;-83
2022/03/03 12:14:35;;;;;;;21.50;14.65;;;;;;;;;;5056312;28;20045;-80
2022/03/03 12:17:19;;;;;;;21.73;14.63;;;;;;;;;;5057144;28;20056;-91
2022/03/03 12:19:46;;;;;;;21.10;14.85;;;;;;;;;;5062860;28;20072;-83
2022/03/03 12:22:24;;;;;;;19.92;14.43;;;;;;;;;;5049431;28;20033;-84
2022/03/03 12:24:50;;;;;;;22.45;15.35;;;;;;;;;;5019708;28;20035;-85
2022/03/03 12:27:16;;;;;;;22.20;14.30;;;;;;;;;;5055384;28;20091;-83
2022/03/03 12:29:42;;;;;;;22.05;14.68;;;;;;;;;;5055112;28;20041;-84
2022/03/03 12:32:27;;;;;;;25.48;15.07;;;;;;;;;;5037316;28;20084;-82
2022/03/03 12:34:54;;;;;;;22.08;14.57;;;;;;;;;;5039537;28;20037;-83
2022/03/03 12:37:20;;;;;;;22.60;15.70;;;;;;;;;;5034847;28;20037;-85
2022/03/03 12:39:49;;;;;;;20.48;15.32;;;;;;;;;;5035375;28;20376;-85
2022/03/03 12:42:19;;;;;;;23.75;14.38;;;;;;;;;;5048352;28;20042;-84
2022/03/03 12:44:52;;;;;;;23.67;15.70;;;;;;;;;;5045632;28;20030;-83
2022/03/03 12:47:30;;;;;;;23.38;15.60;;;;;;;;;;5038596;28;20089;-83
2022/03/03 12:49:56;;;;;;;20.08;14.57;;;;;;;;;;5035448;28;20124;-84
2022/03/03 12:52:23;;;;;;;22.05;15.70;;;;;;;;;;5037049;28;20030;-84
2022/03/03 12:54:52;;;;;;;22.50;16.08;;;;;;;;;;5037328;28;20029;-84
2022/03/03 12:57:26;;;;;;;23.42;16.42;;;;;;;;;;5067697;28;20105;-84
2022/03/03 12:59:53;;;;;;;26.48;18.02;;;;;;;;;;5074470;28;20187;-84
2022/03/03 13:02:19;;;;;;;23.50;16.05;;;;;;;;;;5039819;28;20029;-83
2022/03/03 13:04:45;;;;;;;24.15;16.27;;;;;;;;;;5037651;28;20033;-83
2022/03/03 13:07:12;;;;;;;22.83;17.77;;;;;;;;;;5042707;28;20026;-83
2022/03/03 13:09:50;;;;;;;25.45;16.27;;;;;;;;;;5054278;28;20029;-84
2022/03/03 13:12:16;;;;;;;22.20;14.43;;;;;;;;;;5051691;28;20068;-84
2022/03/03 13:14:42;;;;;;;20.23;13.02;;;;;;;;;;5039037;28;20033;-84
2022/03/03 13:17:08;;;;;;;19.83;12.63;;;;;;;;;;5036132;28;20060;-83
2022/03/03 13:19:46;;;;;;;16.17;11.70;;;;;;;;;;5038476;28;20491;-84
2022/03/03 13:22:12;;;;;;;18.38;12.00;;;;;;;;;;5043723;28;20467;-84
2022/03/03 13:24:38;;;;;;;20.55;13.38;;;;;;;;;;5039035;28;20188;-86
2022/03/03 13:27:04;;;;;;;20.10;14.02;;;;;;;;;;5038282;28;20048;-83
2022/03/03 13:29:32;;;;;;;21.02;13.40;;;;;;;;;;5041882;28;20029;-83
2022/03/03 13:31:59;;;;;;;19.48;12.45;;;;;;;;;;5056886;28;20086;-82
2022/03/03 13:34:29;;;;;;;17.95;11.65;;;;;;;;;;5070790;28;20064;-83
2022/03/03 13:36:56;;;;;;;17.73;11.93;;;;;;;;;;5049948;28;20030;-84
2022/03/03 13:39:23;;;;;;;23.58;14.38;;;;;;;;;;5039357;28;20052;-84
2022/03/03 13:42:03;;;;;;;22.50;13.90;;;;;;;;;;5040338;28;20033;-84
2022/03/03 13:44:32;;;;;;;20.83;12.95;;;;;;;;;;5047006;28;20029;-84
2022/03/03 13:46:58;;;;;;;19.58;13.65;;;;;;;;;;5044251;28;20037;-83
2022/03/03 13:49:25;;;;;;;20.83;12.90;;;;;;;;;;5038418;28;20363;-84
2022/03/03 13:52:09;;;;;;;19.23;13.07;;;;;;;;;;5047332;28;20029;-84
2022/03/03 13:54:46;;;;;;;20.83;12.75;;;;;;;;;;5045176;28;20124;-84
2022/03/03 13:57:31;;;;;;;21.52;14.10;;;;;;;;;;5035293;28;20033;-84
2022/03/03 13:59:59;;;;;;;17.42;11.48;;;;;;;;;;5057118;28;20138;-84
2022/03/03 14:02:25;;;;;;;16.63;10.80;;;;;;;;;;5050759;28;20021;-84
2022/03/03 14:05:02;;;;;;;13.40;9.27;;;;;;;;;;5041815;28;20399;-83
2022/03/03 14:07:28;;;;;;;14.57;10.25;;;;;;;;;;5045241;28;20029;-83
2022/03/03 14:09:57;;;;;;;16.50;9.65;;;;;;;;;;5058271;28;20348;-84
2022/03/03 14:12:23;;;;;;;14.13;9.32;;;;;;;;;;5040425;28;20106;-85
2022/03/03 14:14:49;;;;;;;17.13;9.00;;;;;;;;;;5042496;28;20036;-83
2022/03/03 14:17:15;;;;;;;14.27;9.55;;;;;;;;;;5042613;28;20033;-85
2022/03/03 14:19:43;;;;;;;16.38;10.13;;;;;;;;;;5043924;28;20021;-84
2022/03/03 14:22:09;;;;;;;15.52;10.75;;;;;;;;;;5047863;28;20020;-83
2022/03/03 14:24:38;;;;;;;15.50;11.10;;;;;;;;;;5044818;28;20036;-84
2022/03/03 14:27:04;;;;;;;19.27;11.40;;;;;;;;;;5058360;28;20024;-85
2022/03/03 14:29:30;;;;;;;19.25;12.02;;;;;;;;;;5051283;28;20051;-84
2022/03/03 14:31:56;;;;;;;18.90;10.77;;;;;;;;;;5054966;28;20029;-85
2022/03/03 14:34:22;;;;;;;17.02;11.07;;;;;;;;;;5059298;28;20040;-84
2022/03/03 14:36:48;;;;;;;16.05;11.10;;;;;;;;;;5056744;28;20033;-84
2022/03/03 14:39:15;;;;;;;17.48;10.82;;;;;;;;;;5067152;28;20116;-84
2022/03/03 14:41:41;;;;;;;19.00;11.45;;;;;;;;;;5058185;28;20021;-84
2022/03/03 14:44:08;;;;;;;18.67;10.88;;;;;;;;;;5045190;28;20032;-83
2022/03/03 14:46:34;;;;;;;15.27;10.50;;;;;;;;;;5048935;28;20510;-85
2022/03/03 14:49:00;;;;;;;14.05;10.02;;;;;;;;;;5058937;28;20033;-85
2022/03/03 14:51:29;;;;;;;13.55;8.75;;;;;;;;;;5057176;28;20017;-83
2022/03/03 14:53:55;;;;;;;17.10;9.48;;;;;;;;;;5044426;28;20027;-85
2022/03/03 14:56:21;;;;;;;15.23;9.45;;;;;;;;;;5038138;28;20128;-85
2022/03/03 14:58:47;;;;;;;16.38;9.13;;;;;;;;;;5041730;28;20016;-81
2022/03/03 15:01:13;;;;;;;12.48;8.55;;;;;;;;;;5049886;28;20025;-84